createdAt,value
2017-12-23T00:02:06.341Z,3.07
2017-12-23T00:04:33.997Z,3.17
2017-12-23T00:07:01.600Z,2.80
2017-12-23T00:09:29.225Z,2.40
2017-12-23T00:11:58.315Z,3.90
2017-12-23T00:14:27.424Z,2.90
2017-12-23T00:16:55.753Z,2.53
2017-12-23T00:19:23.426Z,3.00
2017-12-23T00:21:51.003Z,3.70
2017-12-23T00:24:19.477Z,4.20
2017-12-23T00:26:47.068Z,3.50
2017-12-23T00:29:14.691Z,3.67
2017-12-23T00:31:42.276Z,3.03
2017-12-23T00:34:10.648Z,2.97
2017-12-23T00:36:39.005Z,3.93
2017-12-23T00:39:06.611Z,4.07
2017-12-23T00:41:35.068Z,4.10
2017-12-23T00:44:03.443Z,4.40
2017-12-23T00:46:31.034Z,3.80
2017-12-23T00:48:59.489Z,3.90
2017-12-23T00:51:27.096Z,2.70
2017-12-23T00:53:54.728Z,3.40
2017-12-23T00:56:23.104Z,3.90
2017-12-23T00:58:51.475Z,3.27
2017-12-23T01:01:19.087Z,3.50
2017-12-23T01:03:46.673Z,3.07
2017-12-23T01:06:14.373Z,2.93
2017-12-23T01:08:42.728Z,2.97
2017-12-23T01:11:10.341Z,3.87
2017-12-23T01:13:37.923Z,2.67
2017-12-23T01:16:05.535Z,4.10
2017-12-23T01:18:33.195Z,4.30
2017-12-23T01:21:00.860Z,4.60
2017-12-23T01:23:28.457Z,4.80
2017-12-23T01:25:56.912Z,6.03
2017-12-23T01:28:24.500Z,5.80
2017-12-23T01:30:52.864Z,5.57
2017-12-23T01:33:21.338Z,5.57
2017-12-23T01:35:49.698Z,5.83
2017-12-23T01:38:17.316Z,4.63
2017-12-23T01:40:44.912Z,5.93
2017-12-23T01:43:12.536Z,6.30
2017-12-23T01:45:40.137Z,5.57
2017-12-23T01:48:07.752Z,5.80
2017-12-23T01:50:36.203Z,5.90
2017-12-23T01:53:04.682Z,4.90
2017-12-23T01:55:33.077Z,6.73
2017-12-23T01:58:01.492Z,5.17
2017-12-23T02:00:29.832Z,8.37
2017-12-23T02:02:58.208Z,5.60
2017-12-23T02:05:25.805Z,7.27
2017-12-23T02:07:53.448Z,6.83
2017-12-23T02:10:21.913Z,7.73
2017-12-23T02:12:49.642Z,5.63
2017-12-23T02:15:17.335Z,7.40
2017-12-23T02:17:45.004Z,6.80
2017-12-23T02:20:12.671Z,7.97
2017-12-23T02:22:40.276Z,7.67
2017-12-23T02:25:07.898Z,8.23
2017-12-23T02:27:37.087Z,8.77
2017-12-23T02:30:04.748Z,7.47
2017-12-23T02:32:32.418Z,9.13
2017-12-23T02:35:00.904Z,8.43
2017-12-23T02:37:29.272Z,8.83
2017-12-23T02:39:56.871Z,8.97
2017-12-23T02:42:25.232Z,10.53
2017-12-23T02:44:53.607Z,10.37
2017-12-23T02:47:21.975Z,7.90
2017-12-23T02:49:51.170Z,11.23
2017-12-23T02:52:18.751Z,11.60
2017-12-23T02:54:47.217Z,12.80
2017-12-23T02:57:15.605Z,11.20
2017-12-23T02:59:43.207Z,12.90
2017-12-23T03:02:10.788Z,12.20
2017-12-23T03:04:38.393Z,13.30
2017-12-23T03:07:06.743Z,15.97
2017-12-23T03:09:34.360Z,15.63
2017-12-23T03:12:02.813Z,14.27
2017-12-23T03:14:31.183Z,14.50
2017-12-23T03:16:59.569Z,13.97
2017-12-23T03:19:27.924Z,13.90
2017-12-23T03:21:55.544Z,15.13
2017-12-23T03:24:23.126Z,11.10
2017-12-23T03:26:50.832Z,13.30
2017-12-23T03:29:18.411Z,14.70
2017-12-23T03:31:46.779Z,13.70
2017-12-23T03:34:15.147Z,13.73
2017-12-23T03:36:42.808Z,15.33
2017-12-23T03:39:10.397Z,12.80
2017-12-23T03:41:38.847Z,13.20
2017-12-23T03:44:06.512Z,13.13
2017-12-23T03:46:34.172Z,13.83
2017-12-23T03:49:01.841Z,14.30
2017-12-23T03:51:29.503Z,14.33
2017-12-23T03:53:57.872Z,14.10
2017-12-23T03:56:25.538Z,13.47
2017-12-23T03:58:53.149Z,14.47
2017-12-23T04:01:20.743Z,14.90
2017-12-23T04:03:48.424Z,13.90
2017-12-23T04:06:16.007Z,11.70
2017-12-23T04:08:44.375Z,13.30
2017-12-23T04:11:13.470Z,12.80
2017-12-23T04:13:41.943Z,13.57
2017-12-23T04:16:11.135Z,13.20
2017-12-23T04:18:38.745Z,12.53
2017-12-23T04:21:06.368Z,12.40
2017-12-23T04:23:34.844Z,11.93
2017-12-23T04:26:02.512Z,13.20
2017-12-23T04:28:31.600Z,11.23
2017-12-23T04:30:59.211Z,11.30
2017-12-23T04:33:26.814Z,11.47
2017-12-23T04:35:54.483Z,9.00
2017-12-23T04:38:22.147Z,10.20
2017-12-23T04:40:49.807Z,9.93
2017-12-23T04:43:17.391Z,9.67
2017-12-23T04:45:45.763Z,10.27
2017-12-23T04:48:14.116Z,10.63
2017-12-23T04:50:42.603Z,9.07
2017-12-23T04:53:10.189Z,9.00
2017-12-23T04:55:38.561Z,9.40
2017-12-23T04:58:06.906Z,9.90
2017-12-23T05:00:34.587Z,9.13
2017-12-23T05:03:02.168Z,9.43
2017-12-23T05:05:30.540Z,10.43
2017-12-23T05:07:59.008Z,11.07
2017-12-23T05:10:26.676Z,9.43
2017-12-23T05:12:55.047Z,9.77
2017-12-23T05:15:22.702Z,8.00
2017-12-23T05:17:50.303Z,9.33
2017-12-23T05:20:18.665Z,9.33
2017-12-23T05:22:47.039Z,10.20
2017-12-23T05:25:15.383Z,8.00
2017-12-23T05:27:43.072Z,8.10
2017-12-23T05:30:10.740Z,9.90
2017-12-23T05:32:39.216Z,10.50
2017-12-23T05:35:06.850Z,11.00
2017-12-23T05:37:34.539Z,11.70
2017-12-23T05:40:02.133Z,11.77
2017-12-23T05:42:30.520Z,9.13
2017-12-23T05:44:58.138Z,9.60
2017-12-23T05:47:25.799Z,8.60
2017-12-23T05:49:53.464Z,12.57
2017-12-23T05:52:21.045Z,11.47
2017-12-23T05:54:49.508Z,10.30
2017-12-23T05:57:17.096Z,13.60
2017-12-23T05:59:45.471Z,12.10
2017-12-23T06:02:13.927Z,11.70
2017-12-23T06:04:41.536Z,10.97
2017-12-23T06:07:09.123Z,10.80
2017-12-23T06:09:36.732Z,12.63
2017-12-23T06:12:05.190Z,10.40
2017-12-23T06:14:32.860Z,15.77
2017-12-23T06:17:00.519Z,14.90
2017-12-23T06:19:28.123Z,11.03
2017-12-23T06:21:55.703Z,12.83
2017-12-23T06:24:23.404Z,14.43
2017-12-23T06:26:50.987Z,11.10
2017-12-23T06:29:19.331Z,14.77
2017-12-23T06:31:46.936Z,11.73
2017-12-23T06:34:15.387Z,13.97
2017-12-23T06:36:42.991Z,15.13
2017-12-23T06:39:10.568Z,15.03
2017-12-23T06:41:38.175Z,15.23
2017-12-23T06:44:07.367Z,13.47
2017-12-23T06:46:34.971Z,15.03
2017-12-23T06:49:02.595Z,11.23
2017-12-23T06:51:30.256Z,12.00
2017-12-23T06:53:57.920Z,16.13
2017-12-23T06:56:25.583Z,15.00
2017-12-23T06:58:53.937Z,17.37
2017-12-23T07:01:21.524Z,16.83
2017-12-23T07:03:50.648Z,14.90
2017-12-23T07:06:18.999Z,13.23
2017-12-23T07:08:47.480Z,15.93
2017-12-23T07:11:15.148Z,14.13
2017-12-23T07:13:43.539Z,14.50
2017-12-23T07:16:11.891Z,14.33
2017-12-23T07:18:39.563Z,13.33
2017-12-23T07:21:07.209Z,14.13
2017-12-23T07:23:34.887Z,13.73
2017-12-23T07:26:02.551Z,16.07
2017-12-23T07:28:30.155Z,14.73
2017-12-23T07:30:57.739Z,12.90
2017-12-23T07:33:25.353Z,11.87
2017-12-23T07:35:53.711Z,12.80
2017-12-23T07:38:21.332Z,15.40
2017-12-23T07:40:49.011Z,14.27
2017-12-23T07:43:16.561Z,13.63
2017-12-23T07:45:44.166Z,11.17
2017-12-23T07:48:11.832Z,10.53
2017-12-23T07:50:40.307Z,11.20
2017-12-23T07:53:07.896Z,10.00
2017-12-23T07:55:36.268Z,9.63
2017-12-23T07:58:04.624Z,12.83
2017-12-23T08:00:33.935Z,12.30
2017-12-23T08:03:02.292Z,11.00
2017-12-23T08:05:29.903Z,11.70
2017-12-23T08:07:58.254Z,11.10
2017-12-23T08:10:25.916Z,9.70
2017-12-23T08:12:55.008Z,11.20
2017-12-23T08:15:22.688Z,11.87
2017-12-23T08:17:51.050Z,9.67
2017-12-23T08:20:18.632Z,9.10
2017-12-23T08:22:47.004Z,9.17
2017-12-23T08:25:14.588Z,9.00
2017-12-23T08:27:43.040Z,10.33
2017-12-23T08:30:11.388Z,7.97
2017-12-23T08:32:39.080Z,8.97
2017-12-23T08:35:07.455Z,9.43
2017-12-23T08:37:35.061Z,8.00
2017-12-23T08:40:02.645Z,8.67
2017-12-23T08:42:30.248Z,8.53
2017-12-23T08:44:59.445Z,5.83
2017-12-23T08:47:27.056Z,8.30
2017-12-23T08:49:54.660Z,6.90
2017-12-23T08:52:23.863Z,6.03
2017-12-23T08:54:52.203Z,6.83
2017-12-23T08:57:19.869Z,7.43
2017-12-23T08:59:47.568Z,6.00
2017-12-23T09:02:16.652Z,5.57
2017-12-23T09:04:44.260Z,6.20
2017-12-23T09:07:12.600Z,6.50
2017-12-23T09:09:41.791Z,4.80
2017-12-23T09:12:09.376Z,3.80
2017-12-23T09:14:36.971Z,5.00
2017-12-23T09:17:04.554Z,5.30
2017-12-23T09:19:32.247Z,4.37
2017-12-23T09:22:00.592Z,3.80
2017-12-23T09:24:28.288Z,2.87
2017-12-23T09:26:57.376Z,3.77
2017-12-23T09:29:25.051Z,4.70
2017-12-23T09:31:54.248Z,3.70
2017-12-23T09:34:21.847Z,3.83
2017-12-23T09:36:49.518Z,3.80
2017-12-23T09:39:17.951Z,4.40
2017-12-23T09:41:45.620Z,3.77
2017-12-23T09:44:13.204Z,2.93
2017-12-23T09:46:41.660Z,4.00
2017-12-23T09:49:09.320Z,4.63
2017-12-23T09:51:37.688Z,4.23
2017-12-23T09:54:05.329Z,5.07
2017-12-23T09:56:33.020Z,4.50
2017-12-23T09:59:00.697Z,3.13
2017-12-23T10:01:28.347Z,3.57
2017-12-23T10:03:55.919Z,4.07
2017-12-23T10:06:24.280Z,4.27
2017-12-23T10:08:51.962Z,4.07
2017-12-23T10:11:20.347Z,2.80
2017-12-23T10:13:48.004Z,3.27
2017-12-23T10:16:16.444Z,2.83
2017-12-23T10:18:44.144Z,2.73
2017-12-23T10:21:13.334Z,3.70
2017-12-23T10:23:40.935Z,2.07
2017-12-23T10:26:09.380Z,2.37
2017-12-23T10:28:37.042Z,2.60
2017-12-23T10:31:04.621Z,2.90
2017-12-23T10:33:32.215Z,2.17
2017-12-23T10:35:59.795Z,2.23
2017-12-23T10:38:27.560Z,3.20
2017-12-23T10:40:55.163Z,3.50
2017-12-23T10:43:22.758Z,3.03
2017-12-23T10:45:50.341Z,2.77
2017-12-23T10:48:18.039Z,2.20
2017-12-23T10:50:47.035Z,2.40
2017-12-23T10:53:16.130Z,2.70
2017-12-23T10:55:44.499Z,3.20
2017-12-23T10:58:12.176Z,2.80
2017-12-23T11:00:41.283Z,2.77
2017-12-23T11:03:08.931Z,3.40
2017-12-23T11:05:36.696Z,3.50
2017-12-23T11:08:05.790Z,3.50
2017-12-23T11:10:33.392Z,2.83
2017-12-23T11:13:01.830Z,2.70
2017-12-23T11:15:29.536Z,3.63
2017-12-23T11:17:57.868Z,3.67
2017-12-23T11:20:25.517Z,4.10
2017-12-23T11:22:53.203Z,4.43
2017-12-23T11:25:20.799Z,3.77
2017-12-23T11:27:49.139Z,3.83
2017-12-23T11:30:17.529Z,3.93
2017-12-23T11:32:45.186Z,5.10
2017-12-23T11:35:13.530Z,4.43
2017-12-23T11:37:41.123Z,4.40
2017-12-23T11:40:08.792Z,4.17
2017-12-23T11:42:37.161Z,6.40
2017-12-23T11:45:04.831Z,4.20
2017-12-23T11:47:33.200Z,4.83
2017-12-23T11:50:00.876Z,5.00
2017-12-23T11:52:29.985Z,5.30
2017-12-23T11:54:58.331Z,4.23
2017-12-23T11:57:25.932Z,4.90
2017-12-23T11:59:54.293Z,5.70
2017-12-23T12:02:22.667Z,5.10
2017-12-23T12:04:50.244Z,5.80
2017-12-23T12:07:18.707Z,5.23
2017-12-23T12:09:46.284Z,7.00
2017-12-23T12:12:13.941Z,5.70
2017-12-23T12:14:41.544Z,5.87
2017-12-23T12:17:09.128Z,5.90
2017-12-23T12:19:36.727Z,5.80
2017-12-23T12:22:04.374Z,5.80
2017-12-23T12:24:32.039Z,6.67
2017-12-23T12:26:59.619Z,5.60
2017-12-23T12:29:27.227Z,6.47
2017-12-23T12:31:54.828Z,4.20
2017-12-23T12:34:23.311Z,6.30
2017-12-23T12:36:50.976Z,6.30
2017-12-23T12:39:18.630Z,5.20
2017-12-23T12:41:46.304Z,5.70
2017-12-23T12:44:13.964Z,6.03
2017-12-23T12:46:41.624Z,6.00
2017-12-23T12:49:09.965Z,4.37
2017-12-23T12:51:37.595Z,6.57
2017-12-23T12:54:05.944Z,7.00
2017-12-23T12:56:33.544Z,6.20
2017-12-23T12:59:01.232Z,5.87
2017-12-23T13:01:28.933Z,5.50
2017-12-23T13:03:56.517Z,5.70
2017-12-23T13:06:24.876Z,5.70
2017-12-23T13:08:52.524Z,7.07
2017-12-23T13:11:21.011Z,6.73
2017-12-23T13:13:48.679Z,5.50
2017-12-23T13:16:16.277Z,7.10
2017-12-23T13:18:43.857Z,7.40
2017-12-23T13:21:11.461Z,7.60
2017-12-23T13:23:39.823Z,8.13
2017-12-23T13:26:07.499Z,9.17
2017-12-23T13:28:35.175Z,8.97
2017-12-23T13:31:02.832Z,6.40
2017-12-23T13:33:30.496Z,8.83
2017-12-23T13:35:58.151Z,8.50
2017-12-23T13:38:27.354Z,9.07
2017-12-23T13:40:55.016Z,10.60
2017-12-23T13:43:22.684Z,9.47
2017-12-23T13:45:50.267Z,9.40
2017-12-23T13:48:18.712Z,10.63
2017-12-23T13:50:46.375Z,11.40
2017-12-23T13:53:13.976Z,10.40
2017-12-23T13:55:42.331Z,11.63
2017-12-23T13:58:09.983Z,9.90
2017-12-23T14:00:39.184Z,12.77
2017-12-23T14:03:06.831Z,13.17
2017-12-23T14:05:34.412Z,12.23
2017-12-23T14:08:01.995Z,14.10
2017-12-23T14:10:30.371Z,14.53
2017-12-23T14:12:58.729Z,13.60
2017-12-23T14:15:26.345Z,13.90
2017-12-23T14:17:53.947Z,14.87
2017-12-23T14:20:22.324Z,12.60
2017-12-23T14:22:49.914Z,9.20
2017-12-23T14:25:18.383Z,11.67
2017-12-23T14:27:45.968Z,11.60
2017-12-23T14:30:13.575Z,12.90
2017-12-23T14:32:41.176Z,11.80
2017-12-23T14:35:09.635Z,13.03
2017-12-23T14:37:37.982Z,14.50
2017-12-23T14:40:06.695Z,13.60
2017-12-23T14:42:34.372Z,10.80
2017-12-23T14:45:02.028Z,14.53
2017-12-23T14:47:29.706Z,14.20
2017-12-23T14:49:58.060Z,12.73
2017-12-23T14:52:25.732Z,12.70
2017-12-23T14:54:54.117Z,11.70
2017-12-23T14:57:22.501Z,11.27
2017-12-23T14:59:50.083Z,13.30
2017-12-23T15:02:18.465Z,11.90
2017-12-23T15:04:46.096Z,12.73
2017-12-23T15:07:13.755Z,14.53
2017-12-23T15:09:42.848Z,8.77
2017-12-23T15:12:11.340Z,12.80
2017-12-23T15:14:40.432Z,13.50
2017-12-23T15:17:08.044Z,12.50
2017-12-23T15:19:35.656Z,15.37
2017-12-23T15:22:03.279Z,12.37
2017-12-23T15:24:30.984Z,15.77
2017-12-23T15:26:58.646Z,15.07
2017-12-23T15:29:27.049Z,14.37
2017-12-23T15:31:55.559Z,12.60
2017-12-23T15:34:23.267Z,13.37
2017-12-23T15:36:50.852Z,14.27
2017-12-23T15:39:19.228Z,14.30
2017-12-23T15:41:47.580Z,15.47
2017-12-23T15:44:15.196Z,14.20
2017-12-23T15:46:42.811Z,12.53
2017-12-23T15:49:10.425Z,14.57
2017-12-23T15:51:38.100Z,12.40
2017-12-23T15:54:05.801Z,10.00
2017-12-23T15:56:33.461Z,12.13
2017-12-23T15:59:01.088Z,28.50
2017-12-23T16:01:28.853Z,45.23
2017-12-23T16:03:56.435Z,12.47
2017-12-23T16:06:24.112Z,10.70
2017-12-23T16:08:51.774Z,9.97
2017-12-23T16:11:19.435Z,9.97
2017-12-23T16:13:48.632Z,9.00
2017-12-23T16:16:16.239Z,10.80
2017-12-23T16:18:43.829Z,10.60
2017-12-23T16:21:11.521Z,10.30
2017-12-23T16:23:40.719Z,12.33
2017-12-23T16:26:09.092Z,8.20
2017-12-23T16:28:36.688Z,10.30
2017-12-23T16:31:05.059Z,10.87
2017-12-23T16:33:33.407Z,8.83
2017-12-23T16:36:01.015Z,10.20
2017-12-23T16:38:29.367Z,10.33
2017-12-23T16:40:57.760Z,10.00
2017-12-23T16:43:26.108Z,8.83
2017-12-23T16:45:53.780Z,9.77
2017-12-23T16:48:21.444Z,10.23
2017-12-23T16:50:49.112Z,9.13
2017-12-23T16:53:16.719Z,11.83
2017-12-23T16:55:44.312Z,9.07
2017-12-23T16:58:11.992Z,7.27
2017-12-23T17:00:39.576Z,8.40
2017-12-23T17:03:07.946Z,9.00
2017-12-23T17:05:36.304Z,10.67
2017-12-23T17:08:03.908Z,7.93
2017-12-23T17:10:32.361Z,9.50
2017-12-23T17:13:00.026Z,9.20
2017-12-23T17:15:27.680Z,8.63
2017-12-23T17:17:55.305Z,8.00
2017-12-23T17:20:22.903Z,8.40
2017-12-23T17:22:51.352Z,8.07
2017-12-23T17:25:19.053Z,7.20
2017-12-23T17:27:47.427Z,7.40
2017-12-23T17:30:34.401Z,7.80
2017-12-23T17:33:02.004Z,10.43
2017-12-23T17:35:29.608Z,7.70
2017-12-23T17:37:57.227Z,8.20
2017-12-23T17:40:24.836Z,8.87
2017-12-23T17:42:52.429Z,9.10
2017-12-23T17:45:20.111Z,9.97
2017-12-23T17:47:49.199Z,10.20
2017-12-23T17:50:16.878Z,11.20
2017-12-23T17:52:44.464Z,8.80
2017-12-23T17:55:12.855Z,11.27
2017-12-23T17:57:40.443Z,11.33
2017-12-23T18:00:08.028Z,13.53
2017-12-23T18:02:35.700Z,12.30
2017-12-23T18:05:03.323Z,10.17
2017-12-23T18:07:30.927Z,10.63
2017-12-23T18:09:58.519Z,11.70
2017-12-23T18:12:26.148Z,11.20
2017-12-23T18:14:53.804Z,9.80
2017-12-23T18:17:22.920Z,9.67
2017-12-23T18:19:51.396Z,11.33
2017-12-23T18:22:19.872Z,12.20
2017-12-23T18:24:47.531Z,8.47
2017-12-23T18:27:15.191Z,11.27
2017-12-23T18:29:42.776Z,8.67
2017-12-23T18:32:11.195Z,10.50
2017-12-23T18:34:38.799Z,11.57
2017-12-23T18:37:06.419Z,10.60
2017-12-23T18:39:33.999Z,10.50
2017-12-23T18:42:01.592Z,9.70
2017-12-23T18:44:29.239Z,12.00
2017-12-23T18:46:56.899Z,9.83
2017-12-23T18:49:24.568Z,11.33
2017-12-23T18:51:52.152Z,9.50
2017-12-23T18:54:20.519Z,9.20
2017-12-23T18:56:48.881Z,10.50
2017-12-23T18:59:16.551Z,9.00
2017-12-23T19:01:44.216Z,8.03
2017-12-23T19:04:11.871Z,9.40
2017-12-23T19:06:39.548Z,9.50
2017-12-23T19:09:07.210Z,9.07
2017-12-23T19:11:35.573Z,8.63
2017-12-23T19:14:03.239Z,8.50
2017-12-23T19:16:42.591Z,9.00
2017-12-23T19:19:10.238Z,10.37
2017-12-23T19:21:37.827Z,8.73
2017-12-23T19:24:06.197Z,9.07
2017-12-23T19:26:34.548Z,8.30
2017-12-23T19:29:02.150Z,7.77
2017-12-23T19:31:30.599Z,7.70
2017-12-23T19:33:58.215Z,9.40
2017-12-23T19:36:26.153Z,9.00
2017-12-23T19:38:54.615Z,9.77
2017-12-23T19:41:22.276Z,10.33
2017-12-23T19:43:49.860Z,11.60
2017-12-23T19:46:18.248Z,10.17
2017-12-23T19:48:46.673Z,9.90
2017-12-23T19:51:14.289Z,10.10
2017-12-23T19:53:42.647Z,8.80
2017-12-23T19:56:10.299Z,9.03
2017-12-23T19:58:38.783Z,9.17
2017-12-23T20:01:06.444Z,9.63
2017-12-23T20:03:34.032Z,7.90
2017-12-23T20:06:02.403Z,8.63
2017-12-23T20:08:30.751Z,7.77
2017-12-23T20:10:58.362Z,7.33
2017-12-23T20:13:26.708Z,7.60
2017-12-23T20:15:54.367Z,6.93
2017-12-23T20:18:21.958Z,7.87
2017-12-23T20:20:50.311Z,9.47
2017-12-23T20:23:19.508Z,8.20
2017-12-23T20:25:47.091Z,6.87
2017-12-23T20:28:15.559Z,9.10
2017-12-23T20:30:43.908Z,8.20
2017-12-23T20:33:11.512Z,8.27
2017-12-23T20:35:39.862Z,8.07
2017-12-23T20:38:07.458Z,8.07
2017-12-23T20:40:35.824Z,7.73
2017-12-23T20:43:04.288Z,7.43
2017-12-23T20:45:31.961Z,7.27
2017-12-23T20:47:59.578Z,7.90
2017-12-23T20:50:27.175Z,8.93
2017-12-23T20:52:54.845Z,7.37
2017-12-23T20:55:22.457Z,8.43
2017-12-23T20:57:50.041Z,7.03
2017-12-23T21:00:17.648Z,8.10
2017-12-23T21:02:45.999Z,7.97
2017-12-23T21:05:13.668Z,7.90
2017-12-23T21:07:41.243Z,7.30
2017-12-23T21:10:09.607Z,8.23
2017-12-23T21:12:37.184Z,7.93
2017-12-23T21:15:05.546Z,8.63
2017-12-23T21:17:33.131Z,6.77
2017-12-23T21:20:01.509Z,8.03
2017-12-23T21:22:29.884Z,7.93
2017-12-23T21:24:58.349Z,8.13
2017-12-23T21:27:26.009Z,7.73
2017-12-23T21:29:53.621Z,7.47
2017-12-23T21:32:21.231Z,7.60
2017-12-23T21:34:50.343Z,6.90
2017-12-23T21:37:18.696Z,7.40
2017-12-23T21:39:46.304Z,6.13
2017-12-23T21:42:13.923Z,7.07
2017-12-23T21:44:41.548Z,9.10
2017-12-23T21:47:09.163Z,7.43
2017-12-23T21:49:36.743Z,7.20
2017-12-23T21:52:05.103Z,6.57
2017-12-23T21:54:32.684Z,9.07
2017-12-23T21:57:01.061Z,7.93
2017-12-23T21:59:29.417Z,7.40
2017-12-23T22:01:57.149Z,7.93
2017-12-23T22:04:24.831Z,7.43
2017-12-23T22:06:52.438Z,9.73
2017-12-23T22:09:20.029Z,9.83
2017-12-23T22:11:47.639Z,8.53
2017-12-23T22:14:15.996Z,7.70
2017-12-23T22:16:43.673Z,8.63
2017-12-23T22:19:12.780Z,8.70
2017-12-23T22:21:41.243Z,8.73
2017-12-23T22:24:08.912Z,8.40
2017-12-23T22:26:37.293Z,8.47
2017-12-23T22:29:05.673Z,9.57
2017-12-23T22:31:33.265Z,8.80
2017-12-23T22:34:00.876Z,8.60
2017-12-23T22:36:28.465Z,7.30
2017-12-23T22:38:56.936Z,7.80
2017-12-23T22:41:24.592Z,10.10
2017-12-23T22:43:52.320Z,8.30
2017-12-23T22:46:19.984Z,8.33
2017-12-23T22:48:47.602Z,8.60
2017-12-23T22:51:16.064Z,8.30
2017-12-23T22:53:43.732Z,9.87
2017-12-23T22:56:11.319Z,9.80
2017-12-23T22:58:38.949Z,10.33
2017-12-23T23:01:06.610Z,11.07
2017-12-23T23:03:34.226Z,9.60
2017-12-23T23:06:01.816Z,11.47
2017-12-23T23:08:29.407Z,10.07
2017-12-23T23:10:57.123Z,9.03
2017-12-23T23:13:24.712Z,10.77
2017-12-23T23:15:52.383Z,11.00
2017-12-23T23:18:19.973Z,10.43
2017-12-23T23:20:48.354Z,8.00
2017-12-23T23:23:16.708Z,10.70
2017-12-23T23:25:44.320Z,8.90
2017-12-23T23:28:11.927Z,11.20
2017-12-23T23:30:39.655Z,11.10
2017-12-23T23:33:07.358Z,10.87
2017-12-23T23:35:35.024Z,10.27
2017-12-23T23:38:02.685Z,11.30
2017-12-23T23:40:30.283Z,11.73
2017-12-23T23:42:58.008Z,10.70
2017-12-23T23:45:25.592Z,7.87
2017-12-23T23:47:54.048Z,10.47
2017-12-23T23:50:21.704Z,9.10
2017-12-23T23:52:49.320Z,8.80
2017-12-23T23:55:16.935Z,9.73
2017-12-23T23:57:44.595Z,8.20
